createdAt,value
2018-11-26T00:00:52.762Z,97.47
2018-11-26T00:03:22.460Z,93.47
2018-11-26T00:05:52.108Z,99.43
2018-11-26T00:08:21.717Z,100.03
2018-11-26T00:11:04.561Z,104.13
2018-11-26T00:13:34.130Z,103.27
2018-11-26T00:16:04.110Z,93.43
2018-11-26T00:18:33.728Z,91.57
2018-11-26T00:21:03.316Z,92.23
2018-11-26T00:23:33.012Z,91.83
2018-11-26T00:26:02.636Z,89.90
2018-11-26T00:28:32.246Z,93.73
2018-11-26T00:31:01.858Z,90.97
2018-11-26T00:33:31.549Z,88.03
2018-11-26T00:36:01.164Z,85.83
2018-11-26T00:38:30.810Z,87.00
2018-11-26T00:41:00.401Z,86.33
2018-11-26T00:43:30.058Z,82.83
2018-11-26T00:45:59.651Z,86.57
2018-11-26T00:48:29.290Z,85.60
2018-11-26T00:50:59.467Z,89.97
2018-11-26T00:53:29.067Z,83.27
2018-11-26T00:55:58.729Z,80.97
2018-11-26T00:58:28.371Z,81.90
2018-11-26T01:00:57.976Z,77.20
2018-11-26T01:03:27.636Z,72.73
2018-11-26T01:05:57.226Z,76.77
2018-11-26T01:08:26.777Z,63.17
2018-11-26T01:10:56.442Z,65.47
2018-11-26T01:13:26.029Z,65.03
2018-11-26T01:15:55.676Z,67.07
2018-11-26T01:18:25.376Z,67.70
2018-11-26T01:20:54.940Z,68.63
2018-11-26T01:23:24.483Z,62.13
2018-11-26T01:25:54.118Z,58.23
2018-11-26T01:28:23.691Z,51.03
2018-11-26T01:30:53.303Z,56.80
2018-11-26T01:33:22.962Z,58.17
2018-11-26T01:35:52.618Z,62.73
2018-11-26T01:38:22.210Z,61.87
2018-11-26T01:40:52.698Z,62.53
2018-11-26T01:43:22.718Z,59.43
2018-11-26T01:45:53.067Z,58.70
2018-11-26T01:48:22.825Z,56.47
2018-11-26T01:50:52.386Z,53.13
2018-11-26T01:53:21.977Z,50.17
2018-11-26T01:55:51.630Z,46.10
2018-11-26T01:58:21.226Z,43.03
2018-11-26T02:00:50.850Z,43.37
2018-11-26T02:03:20.470Z,47.90
2018-11-26T02:05:53.030Z,48.37
2018-11-26T02:08:22.728Z,48.23
2018-11-26T02:10:52.336Z,49.70
2018-11-26T02:13:21.971Z,47.93
2018-11-26T02:15:51.576Z,45.50
2018-11-26T02:18:21.240Z,47.90
2018-11-26T02:20:50.857Z,47.53
2018-11-26T02:23:20.382Z,42.17
2018-11-26T02:25:50.058Z,41.60
2018-11-26T02:28:19.775Z,44.13
2018-11-26T02:30:49.340Z,42.60
2018-11-26T02:33:19.088Z,42.47
2018-11-26T02:35:48.671Z,39.53
2018-11-26T02:38:18.403Z,39.57
2018-11-26T02:40:47.980Z,40.17
2018-11-26T02:43:17.550Z,41.13
2018-11-26T02:45:47.128Z,40.70
2018-11-26T02:48:19.727Z,40.37
2018-11-26T02:50:49.377Z,40.43
2018-11-26T02:53:18.960Z,42.70
2018-11-26T02:55:48.614Z,39.90
2018-11-26T02:58:18.315Z,39.13
2018-11-26T03:00:47.874Z,43.47
2018-11-26T03:03:17.652Z,41.73
2018-11-26T03:05:47.297Z,38.47
2018-11-26T03:08:16.911Z,37.93
2018-11-26T03:10:46.556Z,39.40
2018-11-26T03:13:16.189Z,40.03
2018-11-26T03:15:45.780Z,34.70
2018-11-26T03:18:15.565Z,32.70
2018-11-26T03:20:45.123Z,30.60
2018-11-26T03:23:14.706Z,28.40
2018-11-26T03:25:44.370Z,30.10
2018-11-26T03:28:13.996Z,33.67
2018-11-26T03:30:43.581Z,32.97
2018-11-26T03:33:13.314Z,35.00
2018-11-26T03:35:42.942Z,33.53
2018-11-26T03:38:15.709Z,32.13
2018-11-26T03:40:45.280Z,34.07
2018-11-26T03:43:14.877Z,32.17
2018-11-26T03:45:44.549Z,35.80
2018-11-26T03:48:14.122Z,33.93
2018-11-26T03:50:43.820Z,35.37
2018-11-26T03:53:13.426Z,35.23
2018-11-26T03:55:43.002Z,35.07
2018-11-26T03:58:12.640Z,35.00
2018-11-26T04:00:42.254Z,38.03
2018-11-26T04:03:11.957Z,36.57
2018-11-26T04:05:41.557Z,37.90
2018-11-26T04:08:11.118Z,37.13
2018-11-26T04:10:40.877Z,36.93
2018-11-26T04:13:10.468Z,34.90
2018-11-26T04:15:40.048Z,35.60
2018-11-26T04:18:09.686Z,35.30
2018-11-26T04:20:39.296Z,35.03
2018-11-26T04:23:08.930Z,39.80
2018-11-26T04:25:38.791Z,40.23
2018-11-26T04:28:08.528Z,42.10
2018-11-26T04:30:38.188Z,45.23
2018-11-26T04:33:07.758Z,48.37
2018-11-26T04:35:37.452Z,48.50
2018-11-26T04:38:07.203Z,48.07
2018-11-26T04:40:36.816Z,45.33
2018-11-26T04:43:06.775Z,47.90
2018-11-26T04:45:36.401Z,46.73
2018-11-26T04:48:06.472Z,46.00
2018-11-26T04:50:36.051Z,47.30
2018-11-26T04:53:05.811Z,45.13
2018-11-26T04:55:35.420Z,49.93
2018-11-26T04:58:05.242Z,47.77
2018-11-26T05:00:37.946Z,50.13
2018-11-26T05:03:07.643Z,47.03
2018-11-26T05:05:37.320Z,49.17
2018-11-26T05:08:07.029Z,50.33
2018-11-26T05:10:36.743Z,51.50
2018-11-26T05:13:06.857Z,49.33
2018-11-26T05:15:39.337Z,50.23
2018-11-26T05:18:09.134Z,50.97
2018-11-26T05:20:38.746Z,53.43
2018-11-26T05:23:08.486Z,50.80
2018-11-26T05:25:38.573Z,48.63
2018-11-26T05:28:08.601Z,35.50
2018-11-26T05:30:38.259Z,48.57
2018-11-26T05:33:08.591Z,48.90
2018-11-26T05:35:38.174Z,49.33
2018-11-26T05:38:07.858Z,47.17
2018-11-26T05:40:38.299Z,42.23
2018-11-26T05:43:07.888Z,46.37
2018-11-26T05:45:37.574Z,45.17
2018-11-26T05:48:07.384Z,46.00
2018-11-26T05:50:37.130Z,43.10
2018-11-26T05:53:07.811Z,44.90
2018-11-26T05:55:37.589Z,46.47
2018-11-26T05:58:08.441Z,47.93
2018-11-26T06:00:38.278Z,47.43
2018-11-26T06:03:09.263Z,48.33
2018-11-26T06:05:38.888Z,47.30
2018-11-26T06:08:08.623Z,45.00
2018-11-26T06:10:38.268Z,43.23
2018-11-26T06:13:09.484Z,45.37
2018-11-26T06:15:39.402Z,48.53
2018-11-26T06:18:09.127Z,48.50
2018-11-26T06:20:38.907Z,49.97
2018-11-26T06:23:08.687Z,50.93
2018-11-26T06:25:38.328Z,51.40
2018-11-26T06:28:07.990Z,49.10
2018-11-26T06:30:37.786Z,54.20
2018-11-26T06:33:07.746Z,54.80
2018-11-26T06:35:37.430Z,52.80
2018-11-26T06:38:08.303Z,53.30
2018-11-26T06:40:38.007Z,48.00
2018-11-26T06:43:07.610Z,48.30
2018-11-26T06:45:37.291Z,48.63
2018-11-26T06:48:07.746Z,46.77
2018-11-26T06:50:37.462Z,42.87
2018-11-26T06:53:08.219Z,44.07
2018-11-26T06:55:37.994Z,46.83
2018-11-26T06:58:07.817Z,43.17
2018-11-26T07:00:37.588Z,41.43
2018-11-26T07:03:07.337Z,45.70
2018-11-26T07:05:37.444Z,41.13
2018-11-26T07:08:07.283Z,41.30
2018-11-26T07:10:36.946Z,46.93
2018-11-26T07:13:07.157Z,38.27
2018-11-26T07:15:36.842Z,41.40
2018-11-26T07:18:07.828Z,40.27
2018-11-26T07:20:37.642Z,43.20
2018-11-26T07:23:07.491Z,42.10
2018-11-26T07:25:37.117Z,41.77
2018-11-26T07:28:09.071Z,41.13
2018-11-26T07:30:38.824Z,43.20
2018-11-26T07:33:09.182Z,42.30
2018-11-26T07:35:39.069Z,42.93
2018-11-26T07:38:09.033Z,40.20
2018-11-26T07:40:38.669Z,41.67
2018-11-26T07:43:13.331Z,43.60
2018-11-26T07:45:42.962Z,36.63
2018-11-26T07:48:13.648Z,40.83
2018-11-26T07:50:43.409Z,38.17
2018-11-26T07:53:13.465Z,33.43
2018-11-26T07:55:43.383Z,37.57
2018-11-26T07:58:13.203Z,38.90
2018-11-26T08:00:42.957Z,40.83
2018-11-26T08:03:12.717Z,44.27
2018-11-26T08:05:42.420Z,41.27
2018-11-26T08:08:12.315Z,42.23
2018-11-26T08:10:42.137Z,42.70
2018-11-26T08:13:13.897Z,45.07
2018-11-26T08:15:43.819Z,41.20
2018-11-26T08:18:13.472Z,40.47
2018-11-26T08:20:43.326Z,44.13
2018-11-26T08:23:13.657Z,43.93
2018-11-26T08:25:43.467Z,44.33
2018-11-26T08:28:13.248Z,42.53
2018-11-26T08:30:43.393Z,45.80
2018-11-26T08:33:13.153Z,44.50
2018-11-26T08:35:42.921Z,45.47
2018-11-26T08:38:16.700Z,44.97
2018-11-26T08:40:49.318Z,42.83
2018-11-26T08:43:23.089Z,27.80
2018-11-26T08:45:56.605Z,46.67
2018-11-26T08:48:30.460Z,45.03
2018-11-26T08:51:02.010Z,41.83
2018-11-26T08:53:33.095Z,41.77
2018-11-26T08:56:02.809Z,42.80
2018-11-26T08:58:32.434Z,52.43
2018-11-26T09:01:06.326Z,45.53
2018-11-26T09:03:36.046Z,39.90
2018-11-26T09:06:06.420Z,40.03
2018-11-26T09:08:37.762Z,40.87
2018-11-26T09:11:09.649Z,43.40
2018-11-26T09:13:39.267Z,37.60
2018-11-26T09:16:08.945Z,36.97
2018-11-26T09:18:38.652Z,31.20
2018-11-26T09:21:08.293Z,37.43
2018-11-26T09:23:38.201Z,37.63
2018-11-26T09:26:07.880Z,34.97
2018-11-26T09:28:37.540Z,36.93
2018-11-26T09:31:07.495Z,33.57
2018-11-26T09:33:37.222Z,34.13
2018-11-26T09:36:06.938Z,36.60
2018-11-26T09:38:36.638Z,32.50
2018-11-26T09:41:06.530Z,32.03
2018-11-26T09:43:36.669Z,33.83
2018-11-26T09:46:07.103Z,34.40
2018-11-26T09:48:36.915Z,29.67
2018-11-26T09:51:13.902Z,34.03
2018-11-26T09:53:36.628Z,31.73
2018-11-26T09:56:06.494Z,31.77
2018-11-26T09:58:36.156Z,31.10
2018-11-26T10:01:06.321Z,30.60
2018-11-26T10:03:35.926Z,26.37
2018-11-26T10:06:06.194Z,33.60
2018-11-26T10:08:35.846Z,35.27
2018-11-26T10:11:05.507Z,34.33
2018-11-26T10:13:35.206Z,30.13
2018-11-26T10:16:04.820Z,35.10
2018-11-26T10:18:34.409Z,31.63
2018-11-26T10:21:04.064Z,34.93
2018-11-26T10:23:33.681Z,34.63
2018-11-26T10:26:03.356Z,36.57
2018-11-26T10:28:33.768Z,36.13
2018-11-26T10:31:03.377Z,37.73
2018-11-26T10:33:32.991Z,38.10
2018-11-26T10:36:02.568Z,38.10
2018-11-26T10:38:32.194Z,40.27
2018-11-26T10:41:01.797Z,38.97
2018-11-26T10:43:31.363Z,38.20
2018-11-26T10:46:01.088Z,36.90
2018-11-26T10:48:30.679Z,34.40
2018-11-26T10:51:00.325Z,32.00
2018-11-26T10:53:29.938Z,31.67
2018-11-26T10:55:59.637Z,30.17
2018-11-26T10:58:29.231Z,28.50
2018-11-26T11:01:02.358Z,28.23
2018-11-26T11:03:31.958Z,27.70
2018-11-26T11:06:01.758Z,27.73
2018-11-26T11:08:31.496Z,25.40
2018-11-26T11:11:00.875Z,25.67
2018-11-26T11:13:30.561Z,24.20
2018-11-26T11:16:03.176Z,24.60
2018-11-26T11:18:33.195Z,23.40
2018-11-26T11:21:02.737Z,23.87
2018-11-26T11:23:32.390Z,23.47
2018-11-26T11:26:02.384Z,26.80
2018-11-26T11:28:32.250Z,34.95
2018-11-26T11:31:01.972Z,32.10
2018-11-26T11:33:31.587Z,31.30
2018-11-26T11:36:01.140Z,31.63
2018-11-26T11:38:30.808Z,28.43
2018-11-26T11:41:00.435Z,28.90
2018-11-26T11:43:30.118Z,28.90
2018-11-26T11:45:59.841Z,29.40
2018-11-26T11:48:29.446Z,29.27
2018-11-26T11:50:59.017Z,29.17
2018-11-26T11:53:28.948Z,26.70
2018-11-26T11:55:58.584Z,27.27
2018-11-26T11:58:28.188Z,26.13
2018-11-26T12:00:57.869Z,27.23
2018-11-26T12:03:27.493Z,25.43
2018-11-26T12:05:57.198Z,24.83
2018-11-26T12:08:27.077Z,24.30
2018-11-26T12:10:56.825Z,25.40
2018-11-26T12:13:26.370Z,20.57
2018-11-26T12:15:56.148Z,23.37
2018-11-26T12:18:25.748Z,22.17
2018-11-26T12:20:55.455Z,22.90
2018-11-26T12:23:25.153Z,25.80
2018-11-26T12:25:54.925Z,23.90
2018-11-26T12:28:24.572Z,21.40
2018-11-26T12:30:54.288Z,23.27
2018-11-26T12:33:23.997Z,23.80
2018-11-26T12:35:53.748Z,24.07
2018-11-26T12:38:23.479Z,25.50
2018-11-26T12:40:53.145Z,24.63
2018-11-26T12:43:23.108Z,36.43
2018-11-26T12:45:52.789Z,35.93
2018-11-26T12:48:22.413Z,34.93
2018-11-26T12:50:52.263Z,26.57
2018-11-26T12:53:21.853Z,30.17
2018-11-26T12:55:51.772Z,37.87
2018-11-26T12:58:21.387Z,29.97
2018-11-26T13:00:51.348Z,26.93
2018-11-26T13:03:21.103Z,25.43
2018-11-26T13:05:51.022Z,23.30
2018-11-26T13:08:20.647Z,23.60
2018-11-26T13:10:50.380Z,25.27
2018-11-26T13:13:20.091Z,23.53
2018-11-26T13:15:49.856Z,26.03
2018-11-26T13:18:19.515Z,24.07
2018-11-26T13:20:49.162Z,27.60
2018-11-26T13:23:18.882Z,22.23
2018-11-26T13:25:48.579Z,25.37
2018-11-26T13:28:18.315Z,27.10
2018-11-26T13:30:50.956Z,26.27
2018-11-26T13:33:21.097Z,27.13
2018-11-26T13:35:51.121Z,26.53
2018-11-26T13:38:20.753Z,29.20
2018-11-26T13:40:50.416Z,32.87
2018-11-26T13:43:22.898Z,31.57
2018-11-26T13:45:52.488Z,34.00
2018-11-26T13:48:22.165Z,34.60
2018-11-26T13:50:57.240Z,34.33
2018-11-26T13:53:27.145Z,32.87
2018-11-26T13:55:57.066Z,34.10
2018-11-26T13:58:26.827Z,31.83
2018-11-26T14:00:56.894Z,30.20
2018-11-26T14:03:26.751Z,29.23
2018-11-26T14:05:56.616Z,29.07
2018-11-26T14:08:26.242Z,27.87
2018-11-26T14:10:56.117Z,27.57
2018-11-26T14:13:25.943Z,30.50
2018-11-26T14:15:55.709Z,30.40
2018-11-26T14:18:25.368Z,32.20
2018-11-26T14:20:55.110Z,31.87
2018-11-26T14:23:24.761Z,30.37
2018-11-26T14:25:54.527Z,33.00
2018-11-26T14:28:24.340Z,31.40
2018-11-26T14:30:54.077Z,31.67
2018-11-26T14:33:23.766Z,32.30
2018-11-26T14:35:53.425Z,34.33
2018-11-26T14:38:23.017Z,36.07
2018-11-26T14:40:54.832Z,33.23
2018-11-26T14:43:24.791Z,33.43
2018-11-26T14:45:54.690Z,30.27
2018-11-26T14:48:24.311Z,32.30
2018-11-26T14:50:54.131Z,33.87
2018-11-26T14:53:23.698Z,32.43
2018-11-26T14:55:53.430Z,29.07
2018-11-26T14:58:23.689Z,33.33
2018-11-26T15:00:53.666Z,31.27
2018-11-26T15:03:23.377Z,30.83
2018-11-26T15:05:53.393Z,35.83
2018-11-26T15:08:23.101Z,33.73
2018-11-26T15:10:52.916Z,34.50
2018-11-26T15:13:22.837Z,36.17
2018-11-26T15:15:52.742Z,33.87
2018-11-26T15:18:22.557Z,32.67
2018-11-26T15:20:52.550Z,34.63
2018-11-26T15:23:22.237Z,29.60
2018-11-26T15:25:51.926Z,32.60
2018-11-26T15:28:21.685Z,30.57
2018-11-26T15:30:51.294Z,30.80
2018-11-26T15:33:21.214Z,27.60
2018-11-26T15:35:51.020Z,29.13
2018-11-26T15:38:20.898Z,30.63
2018-11-26T15:40:50.630Z,28.80
2018-11-26T15:43:20.419Z,29.60
2018-11-26T15:45:50.264Z,30.77
2018-11-26T15:48:20.128Z,30.20
2018-11-26T15:50:49.931Z,32.00
2018-11-26T15:53:19.755Z,33.03
2018-11-26T15:55:49.468Z,33.63
2018-11-26T15:58:23.701Z,32.07
2018-11-26T16:00:48.923Z,34.23
2018-11-26T16:03:18.730Z,32.77
2018-11-26T16:05:48.543Z,34.30
2018-11-26T16:08:18.115Z,28.70
2018-11-26T16:10:47.978Z,30.33
2018-11-26T16:13:17.928Z,28.33
2018-11-26T16:15:47.684Z,27.37
2018-11-26T16:18:22.378Z,30.27
2018-11-26T16:20:52.441Z,35.40
2018-11-26T16:23:22.229Z,35.20
2018-11-26T16:25:51.880Z,35.93
2018-11-26T16:28:23.670Z,37.73
2018-11-26T16:30:53.705Z,41.30
2018-11-26T16:33:23.432Z,37.63
2018-11-26T16:35:53.236Z,38.47
2018-11-26T16:38:22.890Z,33.73
2018-11-26T16:40:52.705Z,34.53
2018-11-26T16:43:22.898Z,37.43
2018-11-26T16:45:52.513Z,34.93
2018-11-26T16:48:22.137Z,32.63
2018-11-26T16:50:51.790Z,30.60
2018-11-26T16:53:21.423Z,37.27
2018-11-26T16:55:51.097Z,34.77
2018-11-26T16:58:21.124Z,35.07
2018-11-26T17:00:50.731Z,36.57
2018-11-26T17:03:20.429Z,33.03
2018-11-26T17:05:50.120Z,32.80
2018-11-26T17:08:19.734Z,33.63
2018-11-26T17:10:49.470Z,34.87
2018-11-26T17:13:19.268Z,37.73
2018-11-26T17:15:48.976Z,35.83
2018-11-26T17:18:18.557Z,32.10
2018-11-26T17:20:48.175Z,34.57
2018-11-26T17:23:17.887Z,30.90
2018-11-26T17:25:47.577Z,27.63
2018-11-26T17:28:17.149Z,27.47
2018-11-26T17:30:46.816Z,23.97
2018-11-26T17:33:19.639Z,27.60
2018-11-26T17:35:50.063Z,27.97
2018-11-26T17:38:19.866Z,27.47
2018-11-26T17:40:52.715Z,27.07
2018-11-26T17:43:22.408Z,30.97
2018-11-26T17:45:53.892Z,34.23
2018-11-26T17:48:23.778Z,31.63
2018-11-26T17:50:53.450Z,33.53
2018-11-26T17:53:23.603Z,31.20
2018-11-26T17:55:57.412Z,36.00
2018-11-26T17:58:29.947Z,27.13
2018-11-26T18:01:10.952Z,32.33
2018-11-26T18:03:40.937Z,33.00
2018-11-26T18:06:10.660Z,30.10
2018-11-26T18:08:40.387Z,31.37
2018-11-26T18:11:10.601Z,31.33
2018-11-26T18:13:40.319Z,34.13
2018-11-26T18:16:10.134Z,28.67
2018-11-26T18:18:40.209Z,32.90
2018-11-26T18:21:09.874Z,32.30
2018-11-26T18:23:39.616Z,31.00
2018-11-26T18:26:09.767Z,30.70
2018-11-26T18:28:39.696Z,28.47
2018-11-26T18:31:09.604Z,32.57
2018-11-26T18:33:39.601Z,33.47
2018-11-26T18:36:09.500Z,29.57
2018-11-26T18:38:39.469Z,34.13
2018-11-26T18:41:09.396Z,31.33
2018-11-26T18:43:41.825Z,32.47
2018-11-26T18:46:12.668Z,31.33
2018-11-26T18:48:43.402Z,33.07
2018-11-26T18:51:14.257Z,30.10
2018-11-26T18:53:44.237Z,30.83
2018-11-26T18:56:15.219Z,26.80
2018-11-26T18:58:45.197Z,30.83
2018-11-26T19:01:19.304Z,28.70
2018-11-26T19:03:49.552Z,28.50
2018-11-26T19:06:23.020Z,30.27
2018-11-26T19:08:52.967Z,32.30
2018-11-26T19:11:23.628Z,34.33
2018-11-26T19:14:01.476Z,33.80
2018-11-26T19:16:35.740Z,32.50
2018-11-26T19:19:06.747Z,37.07
2018-11-26T19:21:36.438Z,35.03
2018-11-26T19:24:08.389Z,35.87
2018-11-26T19:26:41.265Z,35.50
2018-11-26T19:29:11.188Z,34.83
2018-11-26T19:31:40.982Z,35.00
2018-11-26T19:34:11.485Z,31.97
2018-11-26T19:36:41.433Z,34.10
2018-11-26T19:39:12.030Z,37.43
2018-11-26T19:41:44.896Z,36.07
2018-11-26T19:44:17.196Z,36.00
2018-11-26T19:49:24.409Z,35.93
2018-11-26T19:51:54.576Z,37.53
2018-11-26T19:54:25.102Z,37.73
2018-11-26T19:56:59.196Z,40.40
2018-11-26T19:59:30.031Z,38.83
2018-11-26T20:02:05.016Z,36.97
2018-11-26T20:04:55.178Z,39.63
2018-11-26T20:07:27.251Z,35.47
2018-11-26T20:10:01.103Z,40.13
2018-11-26T20:12:30.854Z,36.17
2018-11-26T20:15:01.276Z,36.63
2018-11-26T20:17:36.137Z,34.13
2018-11-26T20:20:06.677Z,36.03
2018-11-26T20:22:36.453Z,38.73
2018-11-26T20:25:14.724Z,37.33
2018-11-26T20:27:44.923Z,36.10
2018-11-26T20:30:15.942Z,34.33
2018-11-26T20:32:53.682Z,36.63
2018-11-26T20:35:27.466Z,35.40
2018-11-26T20:37:57.220Z,37.63
2018-11-26T20:40:29.049Z,36.33
2018-11-26T20:42:58.834Z,39.67
2018-11-26T20:45:31.611Z,38.50
2018-11-26T20:48:04.949Z,37.30
2018-11-26T20:50:42.038Z,35.20
2018-11-26T20:53:12.306Z,32.97
2018-11-26T20:55:42.107Z,34.97
2018-11-26T20:58:12.826Z,31.83
2018-11-26T21:00:45.533Z,34.30
2018-11-26T21:03:15.242Z,34.00
2018-11-26T21:05:44.925Z,31.10
2018-11-26T21:08:15.839Z,31.07
2018-11-26T21:10:45.569Z,33.93
2018-11-26T21:13:16.998Z,33.60
2018-11-26T21:15:44.944Z,35.47
2018-11-26T21:18:14.930Z,37.20
2018-11-26T21:20:50.260Z,34.27
2018-11-26T21:23:29.060Z,36.97
2018-11-26T21:26:00.918Z,34.00
2018-11-26T21:28:30.597Z,35.00
2018-11-26T21:31:00.218Z,33.13
2018-11-26T21:33:29.912Z,35.70
2018-11-26T21:35:59.590Z,28.63
2018-11-26T21:38:29.219Z,33.13
2018-11-26T21:40:58.839Z,30.80
2018-11-26T21:43:28.482Z,30.40
2018-11-26T21:46:01.302Z,31.57
2018-11-26T21:48:30.932Z,32.77
2018-11-26T21:51:00.677Z,30.43
2018-11-26T21:53:30.396Z,30.93
2018-11-26T21:56:00.009Z,31.80
2018-11-26T21:58:29.706Z,31.30
2018-11-26T22:01:01.117Z,29.30
2018-11-26T22:03:30.758Z,32.13
2018-11-26T22:06:00.564Z,30.50
2018-11-26T22:08:30.283Z,31.57
2018-11-26T22:11:01.055Z,30.93
2018-11-26T22:13:29.703Z,30.40
2018-11-26T22:15:59.320Z,30.87
2018-11-26T22:18:29.001Z,33.20
2018-11-26T22:20:58.649Z,31.13
2018-11-26T22:23:28.317Z,34.67
2018-11-26T22:25:58.032Z,31.23
2018-11-26T22:28:27.667Z,32.00
2018-11-26T22:30:57.445Z,28.70
2018-11-26T22:33:27.150Z,33.43
2018-11-26T22:35:56.758Z,28.67
2018-11-26T22:38:26.360Z,31.53
2018-11-26T22:40:56.007Z,32.23
2018-11-26T22:43:25.640Z,31.83
2018-11-26T22:45:55.209Z,31.83
2018-11-26T22:48:24.829Z,31.73
2018-11-26T22:50:54.488Z,31.03
2018-11-26T22:53:24.206Z,28.57
2018-11-26T22:55:53.819Z,30.53
2018-11-26T22:58:23.520Z,28.63
2018-11-26T23:00:54.909Z,29.47
2018-11-26T23:03:26.518Z,30.57
2018-11-26T23:05:56.332Z,30.67
2018-11-26T23:08:25.926Z,26.23
2018-11-26T23:10:55.519Z,29.70
2018-11-26T23:13:25.253Z,29.30
2018-11-26T23:15:54.956Z,28.67
2018-11-26T23:18:24.666Z,26.57
2018-11-26T23:20:54.356Z,25.30
2018-11-26T23:23:23.969Z,25.10
2018-11-26T23:25:53.686Z,24.73
2018-11-26T23:28:23.416Z,26.07
2018-11-26T23:30:53.026Z,23.90
2018-11-26T23:33:22.666Z,24.47
2018-11-26T23:35:52.298Z,21.53
2018-11-26T23:38:21.929Z,27.23
2018-11-26T23:40:51.519Z,27.10
2018-11-26T23:43:21.532Z,26.93
2018-11-26T23:45:51.239Z,23.90
2018-11-26T23:48:20.855Z,26.40
2018-11-26T23:50:50.563Z,22.00
2018-11-26T23:53:20.263Z,22.80
2018-11-26T23:55:49.909Z,19.13
2018-11-26T23:58:19.884Z,19.50
